sensor_id;sensor_type;location;lat;lon;timestamp;P1;durP1;ratioP1;P2;durP2;ratioP2
37409;SDS011;23275;48.914;12.566;2023-02-28T00:00:15;4.75;;;2.50;;
37409;SDS011;23275;48.914;12.566;2023-02-28T00:02:41;6.47;;;3.00;;
37409;SDS011;23275;48.914;12.566;2023-02-28T00:05:08;4.93;;;2.75;;
37409;SDS011;23275;48.914;12.566;2023-02-28T00:07:35;5.80;;;2.60;;
37409;SDS011;23275;48.914;12.566;2023-02-28T00:10:01;5.80;;;2.30;;
37409;SDS011;23275;48.914;12.566;2023-02-28T00:12:27;6.53;;;3.10;;
37409;SDS011;23275;48.914;12.566;2023-02-28T00:14:53;7.45;;;2.90;;
37409;SDS011;23275;48.914;12.566;2023-02-28T00:17:19;6.10;;;2.70;;
37409;SDS011;23275;48.914;12.566;2023-02-28T00:19:46;7.85;;;3.10;;
37409;SDS011;23275;48.914;12.566;2023-02-28T00:22:13;6.53;;;3.20;;
37409;SDS011;23275;48.914;12.566;2023-02-28T00:24:43;6.13;;;2.97;;
37409;SDS011;23275;48.914;12.566;2023-02-28T00:27:09;4.50;;;2.60;;
37409;SDS011;23275;48.914;12.566;2023-02-28T00:29:35;5.30;;;2.83;;
37409;SDS011;23275;48.914;12.566;2023-02-28T00:32:01;6.80;;;2.72;;
37409;SDS011;23275;48.914;12.566;2023-02-28T00:34:27;7.05;;;3.15;;
37409;SDS011;23275;48.914;12.566;2023-02-28T00:36:53;6.05;;;3.03;;
37409;SDS011;23275;48.914;12.566;2023-02-28T00:39:19;5.45;;;2.53;;
37409;SDS011;23275;48.914;12.566;2023-02-28T00:41:45;7.35;;;4.28;;
37409;SDS011;23275;48.914;12.566;2023-02-28T00:44:10;7.15;;;3.30;;
37409;SDS011;23275;48.914;12.566;2023-02-28T00:46:36;6.40;;;3.17;;
37409;SDS011;23275;48.914;12.566;2023-02-28T00:49:01;7.28;;;3.13;;
37409;SDS011;23275;48.914;12.566;2023-02-28T00:51:27;5.25;;;2.83;;
37409;SDS011;23275;48.914;12.566;2023-02-28T00:53:52;4.38;;;2.65;;
37409;SDS011;23275;48.914;12.566;2023-02-28T00:56:18;6.25;;;3.17;;
37409;SDS011;23275;48.914;12.566;2023-02-28T00:58:44;6.93;;;3.42;;
37409;SDS011;23275;48.914;12.566;2023-02-28T01:01:10;6.40;;;3.08;;
37409;SDS011;23275;48.914;12.566;2023-02-28T01:03:35;7.30;;;3.10;;
37409;SDS011;23275;48.914;12.566;2023-02-28T01:06:01;6.82;;;3.17;;
37409;SDS011;23275;48.914;12.566;2023-02-28T01:08:27;7.32;;;3.08;;
37409;SDS011;23275;48.914;12.566;2023-02-28T01:10:52;6.15;;;3.30;;
37409;SDS011;23275;48.914;12.566;2023-02-28T01:13:18;6.43;;;3.50;;
37409;SDS011;23275;48.914;12.566;2023-02-28T01:15:51;6.20;;;3.25;;
37409;SDS011;23275;48.914;12.566;2023-02-28T01:18:19;6.03;;;3.00;;
37409;SDS011;23275;48.914;12.566;2023-02-28T01:20:46;6.47;;;3.65;;
37409;SDS011;23275;48.914;12.566;2023-02-28T01:23:12;5.47;;;2.95;;
37409;SDS011;23275;48.914;12.566;2023-02-28T01:25:37;5.53;;;2.95;;
37409;SDS011;23275;48.914;12.566;2023-02-28T01:28:03;5.70;;;2.97;;
37409;SDS011;23275;48.914;12.566;2023-02-28T01:30:30;5.15;;;2.80;;
37409;SDS011;23275;48.914;12.566;2023-02-28T01:32:56;6.88;;;3.60;;
37409;SDS011;23275;48.914;12.566;2023-02-28T01:35:22;6.43;;;3.47;;
37409;SDS011;23275;48.914;12.566;2023-02-28T01:37:47;5.82;;;3.17;;
37409;SDS011;23275;48.914;12.566;2023-02-28T01:40:13;6.05;;;2.95;;
37409;SDS011;23275;48.914;12.566;2023-02-28T01:42:39;6.97;;;3.58;;
37409;SDS011;23275;48.914;12.566;2023-02-28T01:47:49;5.53;;;3.42;;
37409;SDS011;23275;48.914;12.566;2023-02-28T01:50:21;7.82;;;3.40;;
37409;SDS011;23275;48.914;12.566;2023-02-28T01:52:50;7.88;;;3.67;;
37409;SDS011;23275;48.914;12.566;2023-02-28T01:55:17;7.43;;;3.50;;
37409;SDS011;23275;48.914;12.566;2023-02-28T01:57:54;8.32;;;3.80;;
37409;SDS011;23275;48.914;12.566;2023-02-28T02:00:23;6.03;;;3.63;;
37409;SDS011;23275;48.914;12.566;2023-02-28T02:02:53;8.25;;;3.67;;
37409;SDS011;23275;48.914;12.566;2023-02-28T02:05:22;7.38;;;3.97;;
37409;SDS011;23275;48.914;12.566;2023-02-28T02:07:54;6.47;;;3.70;;
37409;SDS011;23275;48.914;12.566;2023-02-28T02:10:24;7.53;;;4.07;;
37409;SDS011;23275;48.914;12.566;2023-02-28T02:18:17;6.97;;;3.70;;
37409;SDS011;23275;48.914;12.566;2023-02-28T02:32:36;8.10;;;4.45;;
37409;SDS011;23275;48.914;12.566;2023-02-28T02:35:16;6.53;;;3.83;;
37409;SDS011;23275;48.914;12.566;2023-02-28T02:40:52;8.05;;;4.57;;
37409;SDS011;23275;48.914;12.566;2023-02-28T02:46:29;8.13;;;4.15;;
37409;SDS011;23275;48.914;12.566;2023-02-28T02:49:04;8.07;;;3.97;;
37409;SDS011;23275;48.914;12.566;2023-02-28T02:51:33;7.70;;;4.05;;
37409;SDS011;23275;48.914;12.566;2023-02-28T02:54:14;7.85;;;4.57;;
37409;SDS011;23275;48.914;12.566;2023-02-28T02:56:41;8.43;;;4.10;;
37409;SDS011;23275;48.914;12.566;2023-02-28T02:59:11;7.95;;;4.53;;
37409;SDS011;23275;48.914;12.566;2023-02-28T03:01:40;7.30;;;3.88;;
37409;SDS011;23275;48.914;12.566;2023-02-28T03:04:08;9.38;;;4.30;;
37409;SDS011;23275;48.914;12.566;2023-02-28T03:06:40;7.68;;;4.38;;
37409;SDS011;23275;48.914;12.566;2023-02-28T03:09:06;8.40;;;4.63;;
37409;SDS011;23275;48.914;12.566;2023-02-28T03:11:32;8.80;;;4.60;;
37409;SDS011;23275;48.914;12.566;2023-02-28T03:16:49;9.02;;;4.38;;
37409;SDS011;23275;48.914;12.566;2023-02-28T03:27:11;9.05;;;4.80;;
37409;SDS011;23275;48.914;12.566;2023-02-28T03:35:21;8.80;;;4.78;;
37409;SDS011;23275;48.914;12.566;2023-02-28T03:38:18;11.13;;;4.38;;
37409;SDS011;23275;48.914;12.566;2023-02-28T03:41:00;10.48;;;5.45;;
37409;SDS011;23275;48.914;12.566;2023-02-28T03:46:07;9.30;;;4.70;;
37409;SDS011;23275;48.914;12.566;2023-02-28T03:48:40;11.00;;;4.50;;
37409;SDS011;23275;48.914;12.566;2023-02-28T03:51:17;8.38;;;4.78;;
37409;SDS011;23275;48.914;12.566;2023-02-28T03:53:50;10.43;;;5.47;;
37409;SDS011;23275;48.914;12.566;2023-02-28T03:56:34;10.50;;;4.82;;
37409;SDS011;23275;48.914;12.566;2023-02-28T03:59:05;9.40;;;5.00;;
37409;SDS011;23275;48.914;12.566;2023-02-28T04:01:39;8.80;;;5.03;;
37409;SDS011;23275;48.914;12.566;2023-02-28T04:04:08;8.20;;;4.65;;
37409;SDS011;23275;48.914;12.566;2023-02-28T04:06:35;9.75;;;5.07;;
37409;SDS011;23275;48.914;12.566;2023-02-28T04:09:02;9.65;;;5.03;;
37409;SDS011;23275;48.914;12.566;2023-02-28T04:14:02;9.55;;;5.63;;
37409;SDS011;23275;48.914;12.566;2023-02-28T04:16:29;12.20;;;5.10;;
37409;SDS011;23275;48.914;12.566;2023-02-28T04:18:55;9.15;;;4.72;;
37409;SDS011;23275;48.914;12.566;2023-02-28T04:21:27;9.45;;;5.38;;
37409;SDS011;23275;48.914;12.566;2023-02-28T04:23:57;10.18;;;5.32;;
37409;SDS011;23275;48.914;12.566;2023-02-28T04:26:25;10.77;;;5.22;;
37409;SDS011;23275;48.914;12.566;2023-02-28T04:28:58;10.27;;;5.75;;
37409;SDS011;23275;48.914;12.566;2023-02-28T04:31:25;10.73;;;5.72;;
37409;SDS011;23275;48.914;12.566;2023-02-28T04:33:51;10.68;;;5.32;;
37409;SDS011;23275;48.914;12.566;2023-02-28T04:36:17;8.50;;;5.13;;
37409;SDS011;23275;48.914;12.566;2023-02-28T04:38:42;10.68;;;4.78;;
37409;SDS011;23275;48.914;12.566;2023-02-28T04:41:09;10.10;;;5.55;;
37409;SDS011;23275;48.914;12.566;2023-02-28T04:43:35;7.43;;;4.68;;
37409;SDS011;23275;48.914;12.566;2023-02-28T04:46:01;10.07;;;5.28;;
37409;SDS011;23275;48.914;12.566;2023-02-28T04:48:29;9.35;;;5.35;;
37409;SDS011;23275;48.914;12.566;2023-02-28T04:51:01;9.60;;;5.45;;
37409;SDS011;23275;48.914;12.566;2023-02-28T04:53:38;8.32;;;5.00;;
37409;SDS011;23275;48.914;12.566;2023-02-28T04:56:05;9.35;;;4.97;;
37409;SDS011;23275;48.914;12.566;2023-02-28T04:58:33;10.98;;;5.70;;
37409;SDS011;23275;48.914;12.566;2023-02-28T05:01:07;9.75;;;5.00;;
37409;SDS011;23275;48.914;12.566;2023-02-28T05:03:46;8.38;;;5.45;;
37409;SDS011;23275;48.914;12.566;2023-02-28T05:06:12;10.68;;;5.30;;
37409;SDS011;23275;48.914;12.566;2023-02-28T05:08:38;8.35;;;5.60;;
37409;SDS011;23275;48.914;12.566;2023-02-28T05:11:06;8.30;;;5.25;;
37409;SDS011;23275;48.914;12.566;2023-02-28T05:13:36;10.63;;;5.70;;
37409;SDS011;23275;48.914;12.566;2023-02-28T05:16:02;10.48;;;6.07;;
37409;SDS011;23275;48.914;12.566;2023-02-28T05:18:28;9.05;;;5.40;;
37409;SDS011;23275;48.914;12.566;2023-02-28T05:20:53;10.57;;;5.78;;
37409;SDS011;23275;48.914;12.566;2023-02-28T05:23:19;8.10;;;4.80;;
37409;SDS011;23275;48.914;12.566;2023-02-28T05:25:47;9.60;;;5.70;;
37409;SDS011;23275;48.914;12.566;2023-02-28T05:28:12;10.13;;;5.32;;
37409;SDS011;23275;48.914;12.566;2023-02-28T05:30:39;10.77;;;5.88;;
37409;SDS011;23275;48.914;12.566;2023-02-28T05:33:04;12.30;;;5.95;;
37409;SDS011;23275;48.914;12.566;2023-02-28T05:35:30;13.00;;;6.10;;
37409;SDS011;23275;48.914;12.566;2023-02-28T05:37:56;11.88;;;5.95;;
37409;SDS011;23275;48.914;12.566;2023-02-28T05:40:21;11.73;;;6.20;;
37409;SDS011;23275;48.914;12.566;2023-02-28T05:42:47;9.05;;;5.72;;
37409;SDS011;23275;48.914;12.566;2023-02-28T05:45:14;10.73;;;5.60;;
37409;SDS011;23275;48.914;12.566;2023-02-28T05:47:40;11.88;;;5.72;;
37409;SDS011;23275;48.914;12.566;2023-02-28T05:50:05;11.27;;;5.80;;
37409;SDS011;23275;48.914;12.566;2023-02-28T05:52:31;10.85;;;5.95;;
37409;SDS011;23275;48.914;12.566;2023-02-28T05:54:57;9.93;;;5.38;;
37409;SDS011;23275;48.914;12.566;2023-02-28T05:57:23;11.20;;;5.70;;
37409;SDS011;23275;48.914;12.566;2023-02-28T05:59:50;10.70;;;5.80;;
37409;SDS011;23275;48.914;12.566;2023-02-28T06:02:16;10.82;;;5.50;;
37409;SDS011;23275;48.914;12.566;2023-02-28T06:04:42;10.27;;;6.40;;
37409;SDS011;23275;48.914;12.566;2023-02-28T06:07:09;12.52;;;5.95;;
37409;SDS011;23275;48.914;12.566;2023-02-28T06:09:35;12.10;;;6.13;;
37409;SDS011;23275;48.914;12.566;2023-02-28T06:12:01;9.07;;;5.55;;
37409;SDS011;23275;48.914;12.566;2023-02-28T06:14:30;10.30;;;5.70;;
37409;SDS011;23275;48.914;12.566;2023-02-28T06:16:57;11.93;;;5.75;;
37409;SDS011;23275;48.914;12.566;2023-02-28T06:19:23;10.90;;;5.85;;
37409;SDS011;23275;48.914;12.566;2023-02-28T06:21:50;9.02;;;5.03;;
37409;SDS011;23275;48.914;12.566;2023-02-28T06:24:17;9.68;;;5.38;;
37409;SDS011;23275;48.914;12.566;2023-02-28T06:26:44;11.18;;;5.80;;
37409;SDS011;23275;48.914;12.566;2023-02-28T06:29:09;9.75;;;5.63;;
37409;SDS011;23275;48.914;12.566;2023-02-28T06:31:35;9.25;;;5.00;;
37409;SDS011;23275;48.914;12.566;2023-02-28T06:34:00;8.57;;;4.57;;
37409;SDS011;23275;48.914;12.566;2023-02-28T06:36:26;9.25;;;4.75;;
37409;SDS011;23275;48.914;12.566;2023-02-28T06:38:51;8.88;;;4.70;;
37409;SDS011;23275;48.914;12.566;2023-02-28T06:41:20;8.35;;;4.90;;
37409;SDS011;23275;48.914;12.566;2023-02-28T06:43:49;8.95;;;4.95;;
37409;SDS011;23275;48.914;12.566;2023-02-28T06:46:14;10.70;;;4.68;;
37409;SDS011;23275;48.914;12.566;2023-02-28T06:48:40;10.55;;;4.63;;
37409;SDS011;23275;48.914;12.566;2023-02-28T06:51:12;8.85;;;4.47;;
37409;SDS011;23275;48.914;12.566;2023-02-28T06:53:42;8.07;;;4.43;;
37409;SDS011;23275;48.914;12.566;2023-02-28T06:56:08;8.93;;;4.85;;
37409;SDS011;23275;48.914;12.566;2023-02-28T06:58:37;8.90;;;4.80;;
37409;SDS011;23275;48.914;12.566;2023-02-28T07:01:04;6.63;;;4.20;;
37409;SDS011;23275;48.914;12.566;2023-02-28T07:03:30;6.75;;;4.13;;
37409;SDS011;23275;48.914;12.566;2023-02-28T07:05:56;7.30;;;4.00;;
37409;SDS011;23275;48.914;12.566;2023-02-28T07:08:22;8.23;;;4.20;;
37409;SDS011;23275;48.914;12.566;2023-02-28T07:10:54;6.85;;;3.97;;
37409;SDS011;23275;48.914;12.566;2023-02-28T07:13:21;6.25;;;3.90;;
37409;SDS011;23275;48.914;12.566;2023-02-28T07:15:59;7.18;;;4.10;;
37409;SDS011;23275;48.914;12.566;2023-02-28T07:18:27;8.35;;;4.72;;
37409;SDS011;23275;48.914;12.566;2023-02-28T07:20:53;9.07;;;4.00;;
37409;SDS011;23275;48.914;12.566;2023-02-28T07:23:19;6.25;;;3.67;;
37409;SDS011;23275;48.914;12.566;2023-02-28T07:25:45;7.82;;;4.30;;
37409;SDS011;23275;48.914;12.566;2023-02-28T07:28:12;9.75;;;4.43;;
37409;SDS011;23275;48.914;12.566;2023-02-28T07:30:38;11.57;;;4.57;;
37409;SDS011;23275;48.914;12.566;2023-02-28T07:33:04;7.55;;;4.05;;
37409;SDS011;23275;48.914;12.566;2023-02-28T07:35:30;7.32;;;4.10;;
37409;SDS011;23275;48.914;12.566;2023-02-28T07:37:59;8.30;;;4.10;;
37409;SDS011;23275;48.914;12.566;2023-02-28T07:40:25;5.97;;;3.80;;
37409;SDS011;23275;48.914;12.566;2023-02-28T07:42:50;7.47;;;3.70;;
37409;SDS011;23275;48.914;12.566;2023-02-28T07:45:16;7.82;;;4.15;;
37409;SDS011;23275;48.914;12.566;2023-02-28T07:47:43;7.10;;;3.80;;
37409;SDS011;23275;48.914;12.566;2023-02-28T07:50:09;6.85;;;4.15;;
37409;SDS011;23275;48.914;12.566;2023-02-28T07:52:37;7.07;;;4.15;;
37409;SDS011;23275;48.914;12.566;2023-02-28T07:55:03;6.63;;;3.78;;
37409;SDS011;23275;48.914;12.566;2023-02-28T07:57:30;6.85;;;3.85;;
37409;SDS011;23275;48.914;12.566;2023-02-28T07:59:56;7.88;;;4.28;;
37409;SDS011;23275;48.914;12.566;2023-02-28T08:02:21;7.38;;;4.07;;
37409;SDS011;23275;48.914;12.566;2023-02-28T08:04:47;10.20;;;4.10;;
37409;SDS011;23275;48.914;12.566;2023-02-28T08:07:13;6.00;;;3.63;;
37409;SDS011;23275;48.914;12.566;2023-02-28T08:09:39;6.22;;;3.47;;
37409;SDS011;23275;48.914;12.566;2023-02-28T08:12:06;7.40;;;4.03;;
37409;SDS011;23275;48.914;12.566;2023-02-28T08:14:32;6.50;;;3.92;;
37409;SDS011;23275;48.914;12.566;2023-02-28T08:16:58;7.63;;;4.28;;
37409;SDS011;23275;48.914;12.566;2023-02-28T08:19:24;6.75;;;3.60;;
37409;SDS011;23275;48.914;12.566;2023-02-28T08:21:49;7.20;;;3.90;;
37409;SDS011;23275;48.914;12.566;2023-02-28T08:24:15;7.78;;;4.00;;
37409;SDS011;23275;48.914;12.566;2023-02-28T08:26:40;7.95;;;3.70;;
37409;SDS011;23275;48.914;12.566;2023-02-28T08:29:06;6.63;;;3.70;;
37409;SDS011;23275;48.914;12.566;2023-02-28T08:31:32;6.95;;;3.63;;
37409;SDS011;23275;48.914;12.566;2023-02-28T08:33:57;5.57;;;3.75;;
37409;SDS011;23275;48.914;12.566;2023-02-28T08:36:24;6.97;;;3.97;;
37409;SDS011;23275;48.914;12.566;2023-02-28T08:38:53;6.53;;;3.72;;
37409;SDS011;23275;48.914;12.566;2023-02-28T08:41:18;7.60;;;4.20;;
37409;SDS011;23275;48.914;12.566;2023-02-28T08:43:44;5.70;;;3.78;;
37409;SDS011;23275;48.914;12.566;2023-02-28T08:46:13;5.25;;;3.35;;
37409;SDS011;23275;48.914;12.566;2023-02-28T08:48:39;6.45;;;3.80;;
37409;SDS011;23275;48.914;12.566;2023-02-28T08:51:06;6.32;;;3.15;;
37409;SDS011;23275;48.914;12.566;2023-02-28T08:53:38;5.75;;;3.58;;
37409;SDS011;23275;48.914;12.566;2023-02-28T08:56:08;5.37;;;3.50;;
37409;SDS011;23275;48.914;12.566;2023-02-28T08:58:35;5.38;;;3.60;;
37409;SDS011;23275;48.914;12.566;2023-02-28T09:01:06;6.45;;;3.53;;
37409;SDS011;23275;48.914;12.566;2023-02-28T09:03:37;5.78;;;3.45;;
37409;SDS011;23275;48.914;12.566;2023-02-28T09:06:02;5.65;;;3.67;;
37409;SDS011;23275;48.914;12.566;2023-02-28T09:08:29;5.95;;;3.40;;
37409;SDS011;23275;48.914;12.566;2023-02-28T09:10:56;5.88;;;3.60;;
37409;SDS011;23275;48.914;12.566;2023-02-28T09:13:23;7.95;;;3.63;;
37409;SDS011;23275;48.914;12.566;2023-02-28T09:15:49;6.32;;;3.88;;
37409;SDS011;23275;48.914;12.566;2023-02-28T09:18:15;5.45;;;3.63;;
37409;SDS011;23275;48.914;12.566;2023-02-28T09:20:41;6.43;;;3.55;;
37409;SDS011;23275;48.914;12.566;2023-02-28T09:23:08;6.25;;;3.83;;
37409;SDS011;23275;48.914;12.566;2023-02-28T09:25:35;6.50;;;3.92;;
37409;SDS011;23275;48.914;12.566;2023-02-28T09:28:01;7.05;;;3.83;;
37409;SDS011;23275;48.914;12.566;2023-02-28T09:30:27;7.53;;;3.90;;
37409;SDS011;23275;48.914;12.566;2023-02-28T09:32:54;8.05;;;3.75;;
37409;SDS011;23275;48.914;12.566;2023-02-28T09:35:20;7.20;;;3.60;;
37409;SDS011;23275;48.914;12.566;2023-02-28T09:37:46;7.15;;;3.47;;
37409;SDS011;23275;48.914;12.566;2023-02-28T09:40:13;8.00;;;4.38;;
37409;SDS011;23275;48.914;12.566;2023-02-28T09:42:42;7.55;;;3.60;;
37409;SDS011;23275;48.914;12.566;2023-02-28T09:45:51;6.38;;;3.72;;
37409;SDS011;23275;48.914;12.566;2023-02-28T09:48:23;7.82;;;4.30;;
37409;SDS011;23275;48.914;12.566;2023-02-28T09:50:55;6.10;;;4.00;;
37409;SDS011;23275;48.914;12.566;2023-02-28T09:53:28;6.05;;;3.45;;
37409;SDS011;23275;48.914;12.566;2023-02-28T09:56:09;7.40;;;3.63;;
37409;SDS011;23275;48.914;12.566;2023-02-28T09:58:57;5.63;;;3.40;;
37409;SDS011;23275;48.914;12.566;2023-02-28T10:01:54;5.30;;;2.97;;
37409;SDS011;23275;48.914;12.566;2023-02-28T10:07:47;5.30;;;2.85;;
37409;SDS011;23275;48.914;12.566;2023-02-28T10:10:21;5.45;;;2.90;;
37409;SDS011;23275;48.914;12.566;2023-02-28T10:12:52;5.35;;;2.95;;
37409;SDS011;23275;48.914;12.566;2023-02-28T10:15:19;5.18;;;2.97;;
37409;SDS011;23275;48.914;12.566;2023-02-28T10:17:50;5.38;;;3.08;;
37409;SDS011;23275;48.914;12.566;2023-02-28T10:20:20;4.75;;;3.22;;
37409;SDS011;23275;48.914;12.566;2023-02-28T10:22:58;5.60;;;3.53;;
37409;SDS011;23275;48.914;12.566;2023-02-28T10:25:39;6.05;;;3.13;;
37409;SDS011;23275;48.914;12.566;2023-02-28T10:28:12;5.57;;;3.17;;
37409;SDS011;23275;48.914;12.566;2023-02-28T10:30:50;7.18;;;2.90;;
37409;SDS011;23275;48.914;12.566;2023-02-28T10:35:50;6.10;;;3.47;;
37409;SDS011;23275;48.914;12.566;2023-02-28T10:38:18;5.93;;;3.30;;
37409;SDS011;23275;48.914;12.566;2023-02-28T10:40:49;7.13;;;3.00;;
37409;SDS011;23275;48.914;12.566;2023-02-28T10:45:52;5.95;;;3.33;;
37409;SDS011;23275;48.914;12.566;2023-02-28T10:55:56;5.65;;;2.67;;
37409;SDS011;23275;48.914;12.566;2023-02-28T11:01:18;4.85;;;3.03;;
37409;SDS011;23275;48.914;12.566;2023-02-28T11:03:59;5.90;;;3.05;;
37409;SDS011;23275;48.914;12.566;2023-02-28T11:06:26;6.22;;;2.92;;
37409;SDS011;23275;48.914;12.566;2023-02-28T11:08:59;6.67;;;3.00;;
37409;SDS011;23275;48.914;12.566;2023-02-28T11:11:30;8.13;;;3.60;;
37409;SDS011;23275;48.914;12.566;2023-02-28T11:14:07;8.30;;;3.22;;
37409;SDS011;23275;48.914;12.566;2023-02-28T11:16:52;6.40;;;3.70;;
37409;SDS011;23275;48.914;12.566;2023-02-28T11:19:24;7.82;;;3.60;;
37409;SDS011;23275;48.914;12.566;2023-02-28T11:22:00;8.40;;;3.67;;
37409;SDS011;23275;48.914;12.566;2023-02-28T11:24:29;7.88;;;3.80;;
37409;SDS011;23275;48.914;12.566;2023-02-28T11:26:59;7.20;;;3.25;;
37409;SDS011;23275;48.914;12.566;2023-02-28T11:29:26;6.82;;;3.78;;
37409;SDS011;23275;48.914;12.566;2023-02-28T11:32:12;7.25;;;3.42;;
37409;SDS011;23275;48.914;12.566;2023-02-28T11:34:39;6.70;;;3.78;;
37409;SDS011;23275;48.914;12.566;2023-02-28T11:37:09;9.73;;;3.90;;
37409;SDS011;23275;48.914;12.566;2023-02-28T11:39:45;8.38;;;4.00;;
37409;SDS011;23275;48.914;12.566;2023-02-28T11:48:37;8.07;;;4.28;;
37409;SDS011;23275;48.914;12.566;2023-02-28T11:50:42;6.78;;;3.53;;
37409;SDS011;23275;48.914;12.566;2023-02-28T11:56:16;8.52;;;4.18;;
37409;SDS011;23275;48.914;12.566;2023-02-28T11:59:04;6.68;;;3.65;;
37409;SDS011;23275;48.914;12.566;2023-02-28T12:09:44;11.27;;;5.30;;
37409;SDS011;23275;48.914;12.566;2023-02-28T12:18:15;8.98;;;5.32;;
37409;SDS011;23275;48.914;12.566;2023-02-28T12:20:49;8.63;;;4.30;;
37409;SDS011;23275;48.914;12.566;2023-02-28T12:31:40;7.45;;;3.88;;
37409;SDS011;23275;48.914;12.566;2023-02-28T12:34:16;8.93;;;4.30;;
37409;SDS011;23275;48.914;12.566;2023-02-28T12:36:49;7.88;;;3.60;;
37409;SDS011;23275;48.914;12.566;2023-02-28T12:39:18;6.45;;;3.88;;
37409;SDS011;23275;48.914;12.566;2023-02-28T12:41:59;7.15;;;3.83;;
37409;SDS011;23275;48.914;12.566;2023-02-28T12:44:32;8.07;;;3.88;;
37409;SDS011;23275;48.914;12.566;2023-02-28T12:47:02;7.60;;;4.32;;
37409;SDS011;23275;48.914;12.566;2023-02-28T12:49:31;8.88;;;5.00;;
37409;SDS011;23275;48.914;12.566;2023-02-28T12:52:08;8.95;;;5.00;;
37409;SDS011;23275;48.914;12.566;2023-02-28T12:54:46;9.00;;;4.85;;
37409;SDS011;23275;48.914;12.566;2023-02-28T12:57:36;7.88;;;4.85;;
37409;SDS011;23275;48.914;12.566;2023-02-28T13:00:22;9.82;;;5.63;;
37409;SDS011;23275;48.914;12.566;2023-02-28T13:03:05;10.02;;;5.20;;
37409;SDS011;23275;48.914;12.566;2023-02-28T13:11:26;11.55;;;5.97;;
37409;SDS011;23275;48.914;12.566;2023-02-28T13:14:05;10.00;;;4.95;;
37409;SDS011;23275;48.914;12.566;2023-02-28T13:16:48;11.10;;;5.22;;
37409;SDS011;23275;48.914;12.566;2023-02-28T13:19:23;12.10;;;6.18;;
37409;SDS011;23275;48.914;12.566;2023-02-28T13:21:52;9.90;;;5.68;;
37409;SDS011;23275;48.914;12.566;2023-02-28T13:24:39;9.60;;;5.10;;
37409;SDS011;23275;48.914;12.566;2023-02-28T13:27:11;8.82;;;5.38;;
37409;SDS011;23275;48.914;12.566;2023-02-28T13:29:49;7.95;;;4.90;;
37409;SDS011;23275;48.914;12.566;2023-02-28T13:32:28;9.05;;;5.50;;
37409;SDS011;23275;48.914;12.566;2023-02-28T13:39:53;12.20;;;5.75;;
37409;SDS011;23275;48.914;12.566;2023-02-28T13:47:41;11.20;;;5.97;;
37409;SDS011;23275;48.914;12.566;2023-02-28T13:55:50;9.57;;;5.93;;
37409;SDS011;23275;48.914;12.566;2023-02-28T14:01:14;7.97;;;5.18;;
37409;SDS011;23275;48.914;12.566;2023-02-28T14:06:37;9.73;;;5.30;;
37409;SDS011;23275;48.914;12.566;2023-02-28T14:11:40;11.35;;;5.85;;
37409;SDS011;23275;48.914;12.566;2023-02-28T14:14:07;12.45;;;6.18;;
37409;SDS011;23275;48.914;12.566;2023-02-28T14:16:42;9.80;;;5.68;;
37409;SDS011;23275;48.914;12.566;2023-02-28T14:19:14;10.18;;;5.53;;
37409;SDS011;23275;48.914;12.566;2023-02-28T14:21:54;10.23;;;5.45;;
37409;SDS011;23275;48.914;12.566;2023-02-28T14:24:51;10.23;;;6.10;;
37409;SDS011;23275;48.914;12.566;2023-02-28T14:33:08;10.82;;;6.07;;
37409;SDS011;23275;48.914;12.566;2023-02-28T14:38:28;9.48;;;5.88;;
37409;SDS011;23275;48.914;12.566;2023-02-28T14:40:58;10.68;;;5.82;;
37409;SDS011;23275;48.914;12.566;2023-02-28T14:43:28;11.02;;;6.43;;
37409;SDS011;23275;48.914;12.566;2023-02-28T14:45:55;9.82;;;6.07;;
37409;SDS011;23275;48.914;12.566;2023-02-28T14:48:23;12.77;;;6.75;;
37409;SDS011;23275;48.914;12.566;2023-02-28T14:50:54;10.10;;;5.75;;
37409;SDS011;23275;48.914;12.566;2023-02-28T14:53:23;13.65;;;6.65;;
37409;SDS011;23275;48.914;12.566;2023-02-28T14:55:52;8.90;;;5.97;;
37409;SDS011;23275;48.914;12.566;2023-02-28T15:00:52;10.52;;;5.95;;
37409;SDS011;23275;48.914;12.566;2023-02-28T15:03:23;10.10;;;6.18;;
37409;SDS011;23275;48.914;12.566;2023-02-28T15:05:56;10.47;;;6.67;;
37409;SDS011;23275;48.914;12.566;2023-02-28T15:08:23;12.00;;;7.38;;
37409;SDS011;23275;48.914;12.566;2023-02-28T15:10:55;10.18;;;6.75;;
37409;SDS011;23275;48.914;12.566;2023-02-28T15:13:23;11.48;;;6.72;;
37409;SDS011;23275;48.914;12.566;2023-02-28T15:16:00;13.98;;;7.18;;
37409;SDS011;23275;48.914;12.566;2023-02-28T15:18:30;11.40;;;6.53;;
37409;SDS011;23275;48.914;12.566;2023-02-28T15:21:20;11.23;;;6.30;;
37409;SDS011;23275;48.914;12.566;2023-02-28T15:23:50;12.55;;;7.22;;
37409;SDS011;23275;48.914;12.566;2023-02-28T15:26:27;10.13;;;6.50;;
37409;SDS011;23275;48.914;12.566;2023-02-28T15:29:05;13.00;;;7.13;;
37409;SDS011;23275;48.914;12.566;2023-02-28T15:31:46;18.95;;;7.35;;
37409;SDS011;23275;48.914;12.566;2023-02-28T15:34:19;10.77;;;7.32;;
37409;SDS011;23275;48.914;12.566;2023-02-28T15:36:47;12.50;;;7.53;;
37409;SDS011;23275;48.914;12.566;2023-02-28T15:39:24;11.40;;;6.43;;
37409;SDS011;23275;48.914;12.566;2023-02-28T15:41:52;11.80;;;6.93;;
37409;SDS011;23275;48.914;12.566;2023-02-28T15:44:34;12.75;;;7.38;;
37409;SDS011;23275;48.914;12.566;2023-02-28T15:47:07;14.18;;;8.00;;
37409;SDS011;23275;48.914;12.566;2023-02-28T15:49:45;12.75;;;8.05;;
37409;SDS011;23275;48.914;12.566;2023-02-28T15:52:22;13.45;;;7.57;;
37409;SDS011;23275;48.914;12.566;2023-02-28T15:54:56;15.50;;;7.45;;
37409;SDS011;23275;48.914;12.566;2023-02-28T15:57:26;14.73;;;7.72;;
37409;SDS011;23275;48.914;12.566;2023-02-28T15:59:55;12.77;;;7.15;;
37409;SDS011;23275;48.914;12.566;2023-02-28T16:02:32;15.05;;;8.27;;
37409;SDS011;23275;48.914;12.566;2023-02-28T16:05:16;12.88;;;7.15;;
37409;SDS011;23275;48.914;12.566;2023-02-28T16:07:52;12.93;;;7.57;;
37409;SDS011;23275;48.914;12.566;2023-02-28T16:10:19;12.18;;;7.22;;
37409;SDS011;23275;48.914;12.566;2023-02-28T16:12:46;14.43;;;8.20;;
37409;SDS011;23275;48.914;12.566;2023-02-28T16:15:21;12.75;;;7.68;;
37409;SDS011;23275;48.914;12.566;2023-02-28T16:17:50;12.23;;;7.20;;
37409;SDS011;23275;48.914;12.566;2023-02-28T16:20:21;14.43;;;8.20;;
37409;SDS011;23275;48.914;12.566;2023-02-28T16:22:49;13.35;;;8.02;;
37409;SDS011;23275;48.914;12.566;2023-02-28T16:25:17;13.57;;;7.90;;
37409;SDS011;23275;48.914;12.566;2023-02-28T16:27:47;14.50;;;8.70;;
37409;SDS011;23275;48.914;12.566;2023-02-28T16:30:32;15.50;;;8.60;;
37409;SDS011;23275;48.914;12.566;2023-02-28T16:32:58;12.05;;;7.80;;
37409;SDS011;23275;48.914;12.566;2023-02-28T16:35:24;13.07;;;8.00;;
37409;SDS011;23275;48.914;12.566;2023-02-28T16:37:53;13.57;;;7.93;;
37409;SDS011;23275;48.914;12.566;2023-02-28T16:40:20;12.52;;;8.18;;
37409;SDS011;23275;48.914;12.566;2023-02-28T16:42:52;13.40;;;8.98;;
37409;SDS011;23275;48.914;12.566;2023-02-28T16:45:24;13.63;;;8.23;;
37409;SDS011;23275;48.914;12.566;2023-02-28T16:47:51;13.95;;;8.40;;
37409;SDS011;23275;48.914;12.566;2023-02-28T16:50:24;14.02;;;8.20;;
37409;SDS011;23275;48.914;12.566;2023-02-28T16:52:52;15.98;;;8.77;;
37409;SDS011;23275;48.914;12.566;2023-02-28T16:55:19;13.85;;;8.60;;
37409;SDS011;23275;48.914;12.566;2023-02-28T16:57:56;17.05;;;8.95;;
37409;SDS011;23275;48.914;12.566;2023-02-28T17:00:25;16.63;;;9.02;;
37409;SDS011;23275;48.914;12.566;2023-02-28T17:02:52;15.63;;;9.15;;
37409;SDS011;23275;48.914;12.566;2023-02-28T17:05:18;13.98;;;8.25;;